Time;durP1;ratioP1;P1;durP2;ratioP2;P2;SDS_P1;SDS_P2;PMS_P1;PMS_P2;Temp;Humidity;BMP_temperature;BMP_pressure;BME280_temperature;BME280_humidity;BME280_pressure;Samples;Min_cycle;Max_cycle;Signal;HPM_P1;HPM_P2
2022/06/11 00:01:58;;;;;;;;;;;;;;;17.00;100.00;99152.06;5031839;28;814;-63
2022/06/11 00:04:38;;;;;;;;;;;;;;;17.03;100.00;99146.34;5031906;28;862;-63
2022/06/11 00:07:07;;;;;;;;;;;;;;;17.01;100.00;99150.84;5031858;28;803;-63
2022/06/11 00:09:35;;;;;;;;;;;;;;;16.99;100.00;99139.38;5031725;28;877;-63
2022/06/11 00:12:02;;;;;;;;;;;;;;;16.98;100.00;99143.38;5031799;28;807;-63
2022/06/11 00:14:30;;;;;;;;;;;;;;;17.00;100.00;99135.31;5031728;28;858;-63
2022/06/11 00:16:58;;;;;;;;;;;;;;;16.96;100.00;99140.28;5031619;28;1949;-63
2022/06/11 00:19:25;;;;;;;;;;;;;;;16.91;100.00;99133.28;5031536;28;905;-63
2022/06/11 00:21:52;;;;;;;;;;;;;;;16.87;100.00;99138.25;5031795;28;870;-63
2022/06/11 00:24:20;;;;;;;;;;;;;;;16.83;100.00;99126.47;5031567;28;835;-63
2022/06/11 00:26:48;;;;;;;;;;;;;;;16.82;100.00;99130.50;5031518;28;890;-64
2022/06/11 00:29:15;;;;;;;;;;;;;;;16.83;100.00;99127.22;5031494;28;1135;-62
2022/06/11 00:31:43;;;;;;;;;;;;;;;16.85;100.00;99124.75;5031602;28;807;-63
2022/06/11 00:34:10;;;;;;;;;;;;;;;16.93;100.00;99120.44;5031478;28;874;-63
2022/06/11 00:36:37;;;;;;;;;;;;;;;16.94;100.00;99119.19;5031412;28;1967;-63
2022/06/11 00:39:05;;;;;;;;;;;;;;;16.96;100.00;99124.31;5031447;28;866;-63
2022/06/11 00:41:32;;;;;;;;;;;;;;;16.99;100.00;99119.84;5031398;28;866;-63
2022/06/11 00:43:59;;;;;;;;;;;;;;;17.02;100.00;99116.88;5031431;28;799;-63
2022/06/11 00:46:44;;;;;;;;;;;;;;;17.06;100.00;99123.09;5031328;28;807;-63
2022/06/11 00:49:32;;;;;;;;;;;;;;;17.07;100.00;99123.84;5031415;28;834;-63
2022/06/11 00:52:10;;;;;;;;;;;;;;;17.05;100.00;99120.78;5031302;28;859;-63
2022/06/11 00:54:39;;;;;;;;;;;;;;;17.04;100.00;99124.78;5031369;28;803;-63
2022/06/11 00:57:06;;;;;;;;;;;;;;;17.06;100.00;99125.88;5031464;28;1902;-63
2022/06/11 00:59:43;;;;;;;;;;;;;;;17.13;100.00;99127.59;5031481;28;862;-63
2022/06/11 01:02:11;;;;;;;;;;;;;;;17.18;100.00;99129.78;5013524;28;1292;-63
2022/06/11 01:04:38;;;;;;;;;;;;;;;17.20;100.00;99132.88;5031280;28;878;-62
2022/06/11 01:07:11;;;;;;;;;;;;;;;17.19;100.00;99128.53;5033315;28;870;-63
2022/06/11 01:09:50;;;;;;;;;;;;;;;17.20;100.00;99118.13;5035054;28;791;-62
2022/06/11 01:12:30;;;;;;;;;;;;;;;17.19;100.00;99114.56;5035027;28;826;-62
2022/06/11 01:15:12;;;;;;;;;;;;;;;17.21;100.00;99105.72;5035272;28;850;-62
2022/06/11 01:17:57;;;;;;;;;;;;;;;17.18;100.00;99101.84;5034933;28;843;-62
2022/06/11 01:20:45;;;;;;;;;;;;;;;17.19;100.00;99103.38;5035125;28;818;-63
2022/06/11 01:23:26;;;;;;;;;;;;;;;17.21;100.00;99106.50;5034837;28;890;-63
2022/06/11 01:26:07;;;;;;;;;;;;;;;17.19;100.00;99113.78;5034850;28;853;-63
2022/06/11 01:28:37;;;;;;;;;;;;;;;17.14;100.00;99115.19;5034985;28;1006;-63
2022/06/11 01:31:21;;;;;;;;;;;;;;;17.11;100.00;99122.47;5034535;28;1328;-63
2022/06/11 01:34:03;;;;;;;;;;;;;;;17.11;100.00;99119.69;5034939;28;807;-62
2022/06/11 01:36:43;;;;;;;;;;;;;;;17.14;100.00;99112.41;5034560;28;1963;-62
2022/06/11 01:39:15;;;;;;;;;;;;;;;17.18;100.00;99115.03;5034796;28;811;-62
2022/06/11 01:41:52;;;;;;;;;;;;;;;17.12;100.00;99115.66;5034602;28;850;-62
2022/06/11 01:44:23;;;;;;;;;;;;;;;17.02;100.00;99114.06;5034769;28;807;-62
2022/06/11 01:46:51;;;;;;;;;;;;;;;16.91;100.00;99116.56;5034474;28;815;-62
2022/06/11 01:49:21;;;;;;;;;;;;;;;16.83;100.00;99110.47;5034270;28;862;-62
2022/06/11 01:51:53;;;;;;;;;;;;;;;16.80;100.00;99116.19;5034295;28;858;-63
2022/06/11 01:54:39;;;;;;;;;;;;;;;16.78;100.00;99118.69;5034318;28;842;-62
2022/06/11 01:57:34;;;;;;;;;;;;;;;16.81;100.00;99106.59;5034111;28;1878;-63
2022/06/11 02:00:19;;;;;;;;;;;;;;;16.91;100.00;99097.00;5034218;28;881;-63
2022/06/11 02:02:53;;;;;;;;;;;;;;;17.05;100.00;99104.78;5034096;28;846;-63
2022/06/11 02:05:32;;;;;;;;;;;;;;;17.02;100.00;99102.16;5034253;28;807;-63
2022/06/11 02:08:17;;;;;;;;;;;;;;;17.02;100.00;99093.78;5034041;28;878;-63
2022/06/11 02:10:58;;;;;;;;;;;;;;;17.08;100.00;99098.28;5033971;28;858;-63
2022/06/11 02:13:34;;;;;;;;;;;;;;;17.10;100.00;99104.16;5034100;28;866;-63
2022/06/11 02:16:01;;;;;;;;;;;;;;;17.02;100.00;99102.16;5033795;28;1949;-63
2022/06/11 02:18:28;;;;;;;;;;;;;;;16.88;100.00;99107.09;5033476;28;838;-64
2022/06/11 02:20:54;;;;;;;;;;;;;;;16.76;100.00;99094.00;5033799;28;791;-63
2022/06/11 02:23:24;;;;;;;;;;;;;;;16.82;100.00;99089.41;5033794;28;917;-63
2022/06/11 02:25:56;;;;;;;;;;;;;;;16.95;100.00;99089.28;5033633;28;838;-63
2022/06/11 02:28:25;;;;;;;;;;;;;;;16.97;100.00;99086.78;5033806;28;978;-63
2022/06/11 02:30:53;;;;;;;;;;;;;;;16.89;100.00;99085.53;5033487;28;1324;-63
2022/06/11 02:33:20;;;;;;;;;;;;;;;16.76;100.00;99087.66;5033787;28;905;-63
2022/06/11 02:35:50;;;;;;;;;;;;;;;16.62;100.00;99083.44;5034087;28;1910;-63
2022/06/11 02:38:18;;;;;;;;;;;;;;;16.58;100.00;99075.22;5033379;28;811;-63
2022/06/11 02:40:49;;;;;;;;;;;;;;;16.66;100.00;99084.06;5033451;28;803;-63
2022/06/11 02:43:16;;;;;;;;;;;;;;;16.77;100.00;99081.63;5033485;28;826;-63
2022/06/11 02:57:53;;;;;;;;;;;;;;;17.11;100.00;99116.09;5033396;28;597;-63
2022/06/11 03:00:22;;;;;;;;;;;;;;;17.21;100.00;99105.72;5033354;28;804;-63
2022/06/11 03:02:49;;;;;;;;;;;;;;;17.32;100.00;99098.41;5032892;28;898;-63
2022/06/11 03:05:17;;;;;;;;;;;;;;;17.42;100.00;99076.09;5033017;28;803;-63
2022/06/11 03:11:01;;;;;;;;;;;;;;;17.54;100.00;99089.13;5033144;28;621;-63
2022/06/11 03:13:28;;;;;;;;;;;;;;;17.58;100.00;99088.94;5032814;28;853;-63
2022/06/11 03:15:55;;;;;;;;;;;;;;;17.61;100.00;99090.81;5032701;28;1959;-62
2022/06/11 03:18:22;;;;;;;;;;;;;;;17.60;100.00;99092.81;5032593;28;838;-63
2022/06/11 03:20:53;;;;;;;;;;;;;;;17.55;100.00;99097.00;5014895;28;827;-64
2022/06/11 03:23:19;;;;;;;;;;;;;;;17.50;100.00;99108.06;5032631;28;827;-63
2022/06/11 03:25:46;;;;;;;;;;;;;;;17.44;100.00;99112.72;5014766;28;795;-61
2022/06/11 03:28:17;;;;;;;;;;;;;;;17.42;100.00;99129.16;5032337;28;947;-64
2022/06/11 03:30:45;;;;;;;;;;;;;;;17.41;100.00;99135.97;5031939;28;1329;-63
2022/06/11 03:33:40;;;;;;;;;;;;;;;17.44;100.00;99141.41;5032600;28;783;-62
2022/06/11 03:36:09;;;;;;;;;;;;;;;17.51;100.00;99137.53;5032304;28;1961;-63
2022/06/11 03:38:37;;;;;;;;;;;;;;;17.51;100.00;99140.31;5032324;28;870;-62
2022/06/11 03:41:05;;;;;;;;;;;;;;;17.51;100.00;99155.06;5032257;28;866;-63
2022/06/11 03:43:32;;;;;;;;;;;;;;;17.53;100.00;99169.34;5032210;28;803;-62
2022/06/11 03:45:59;;;;;;;;;;;;;;;17.58;100.00;99195.13;5032260;28;783;-62
2022/06/11 03:48:28;;;;;;;;;;;;;;;17.59;100.00;99214.22;5032155;28;839;-62
2022/06/11 03:50:57;;;;;;;;;;;;;;;17.59;100.00;99230.97;5032062;28;877;-62
2022/06/11 03:53:25;;;;;;;;;;;;;;;17.51;100.00;99243.69;5032080;28;815;-63
2022/06/11 03:55:51;;;;;;;;;;;;;;;17.36;100.00;99268.66;5031950;28;1886;-63
2022/06/11 03:58:20;;;;;;;;;;;;;;;17.18;100.00;99277.00;5032136;28;835;-63
2022/06/11 04:03:33;;;;;;;;;;;;;;;16.92;100.00;99285.59;5032252;28;621;-63
2022/06/11 04:06:00;;;;;;;;;;;;;;;16.88;100.00;99285.72;5031839;28;799;-65
2022/06/11 04:08:27;;;;;;;;;;;;;;;16.84;100.00;99287.88;5031786;28;870;-63
2022/06/11 04:10:56;;;;;;;;;;;;;;;16.80;100.00;99280.84;5031899;28;835;-64
2022/06/11 04:13:24;;;;;;;;;;;;;;;16.77;100.00;99284.53;5031702;28;834;-63
2022/06/11 04:15:51;;;;;;;;;;;;;;;16.75;100.00;99276.66;5031802;28;1886;-64
2022/06/11 04:18:31;;;;;;;;;;;;;;;16.77;100.00;99270.59;5031976;28;878;-63
2022/06/11 04:20:59;;;;;;;;;;;;;;;16.76;100.00;99272.59;5031636;28;806;-63
2022/06/11 04:23:29;;;;;;;;;;;;;;;16.74;100.00;99269.50;5031624;28;858;-62
2022/06/11 04:25:58;;;;;;;;;;;;;;;16.74;100.00;99273.06;5031577;28;783;-63
2022/06/11 04:28:26;;;;;;;;;;;;;;;16.76;100.00;99280.97;5031600;28;910;-63
2022/06/11 04:30:52;;;;;;;;;;;;;;;16.73;100.00;99279.13;5031251;28;1238;-63
2022/06/11 04:33:20;;;;;;;;;;;;;;;16.76;100.00;99269.03;5013833;28;1180;-64
2022/06/11 04:35:46;;;;;;;;;;;;;;;16.81;100.00;99272.03;5031424;28;2001;-66
2022/06/11 04:38:14;;;;;;;;;;;;;;;16.86;100.00;99273.47;5031485;28;807;-68
2022/06/11 04:40:39;;;;;;;;;;;;;;;16.86;100.00;99273.47;5033104;28;842;-70
2022/06/11 04:43:06;;;;;;;;;;;;;;;16.87;100.00;99269.41;5017886;28;1192;-71
2022/06/11 04:48:44;;;;;;;;;;;;;;;16.93;100.00;99282.31;5014834;28;952;-71
2022/06/11 04:51:11;;;;;;;;;;;;;;;16.94;100.00;99278.31;5035495;28;862;-73
2022/06/11 04:53:48;;;;;;;;;;;;;;;;;;;;;
2022/06/11 04:59:35;;;;;;;;;;;;;;;17.02;100.00;99278.78;4917348;29;1465;-73
2022/06/11 05:02:03;;;;;;;;;;;;;;;17.02;100.00;99283.59;4901259;29;1266;-70
2022/06/11 05:04:30;;;;;;;;;;;;;;;17.01;100.00;99282.06;4916926;29;1034;-67
2022/06/11 05:06:57;;;;;;;;;;;;;;;17.00;100.00;99272.13;4916854;29;848;-70
2022/06/11 05:09:30;;;;;;;;;;;;;;;16.98;100.00;99271.78;4916705;29;1423;-74
2022/06/11 05:11:57;;;;;;;;;;;;;;;16.95;100.00;99265.13;4901126;29;1328;-73
2022/06/11 05:14:25;;;;;;;;;;;;;;;16.98;100.00;99263.41;4901034;29;1368;-71
2022/06/11 05:16:56;;;;;;;;;;;;;;;16.99;100.00;99257.38;4901298;29;1887;-74
2022/06/11 05:19:34;;;;;;;;;;;;;;;17.01;100.00;99257.69;4901217;29;1080;-77
2022/06/11 05:22:00;;;;;;;;;;;;;;;17.03;100.00;99260.03;4901461;29;1091;-76
2022/06/11 05:24:53;;;;;;;;;;;;;;;17.09;100.00;99261.78;4917442;29;1211;-77
2022/06/11 05:27:25;;;;;;;;;;;;;;;17.12;100.00;99260.06;4915281;29;938;-75
2022/06/11 05:30:07;;;;;;;;;;;;;;;;;;;;;
2022/06/11 05:32:49;;;;;;;;;;;;;;;17.21;100.00;99264.91;4916828;29;880;-75
2022/06/11 05:42:01;;;;;;;;;;;;;;;17.39;100.00;99273.34;4978054;28;1358;-76
2022/06/11 05:44:37;;;;;;;;;;;;;;;17.39;100.00;99275.31;5014169;28;1094;-76
2022/06/11 05:47:04;;;;;;;;;;;;;;;17.35;100.00;99276.25;5015222;28;819;-72
2022/06/11 05:52:54;;;;;;;;;;;;;;;17.33;100.00;99272.38;5013998;28;629;-76
2022/06/11 05:55:23;;;;;;;;;;;;;;;17.40;100.00;99276.91;5013713;28;1886;-73
2022/06/11 05:58:01;;;;;;;;;;;;;;;17.49;100.00;99280.47;5014707;28;812;-75
2022/06/11 06:00:31;;;;;;;;;;;;;;;17.61;100.00;99278.03;5013915;28;1264;-74
2022/06/11 06:02:57;;;;;;;;;;;;;;;17.62;100.00;99279.56;5014949;28;927;-73
2022/06/11 06:05:26;;;;;;;;;;;;;;;17.64;100.00;99282.69;5013541;28;1544;-73
2022/06/11 06:07:53;;;;;;;;;;;;;;;17.60;100.00;99282.81;5015048;28;823;-72
2022/06/11 06:10:20;;;;;;;;;;;;;;;17.64;100.00;99283.44;5015387;28;795;-75
2022/06/11 06:12:47;;;;;;;;;;;;;;;17.69;100.00;99285.66;5014909;28;818;-74
2022/06/11 06:15:16;;;;;;;;;;;;;;;17.78;100.00;99292.50;5014499;28;1940;-72
2022/06/11 06:17:43;;;;;;;;;;;;;;;17.87;100.00;99289.72;5014154;28;843;-74
2022/06/11 06:20:12;;;;;;;;;;;;;;;18.05;100.00;99286.94;5014191;28;989;-73
2022/06/11 06:22:38;;;;;;;;;;;;;;;18.26;100.00;99304.78;5013004;28;981;-71
2022/06/11 06:25:05;;;;;;;;;;;;;;;18.19;100.00;99290.34;5013048;28;1386;-71
2022/06/11 06:27:32;;;;;;;;;;;;;;;18.05;100.00;99286.94;5013934;28;878;-71
2022/06/11 06:29:59;;;;;;;;;;;;;;;18.05;100.00;99286.13;5021982;28;1234;-70
2022/06/11 06:32:29;;;;;;;;;;;;;;;17.99;100.00;99290.78;5015906;28;1093;-72
2022/06/11 06:34:55;;;;;;;;;;;;;;;17.85;100.00;99295.78;5015958;28;852;-69
2022/06/11 06:37:23;;;;;;;;;;;;;;;17.81;100.00;99299.94;5033502;28;1973;-69
2022/06/11 06:39:49;;;;;;;;;;;;;;;17.83;100.00;99292.66;5033499;28;1095;-69
2022/06/11 06:42:19;;;;;;;;;;;;;;;17.90;100.00;99295.16;5015672;28;1501;-71
2022/06/11 06:44:46;;;;;;;;;;;;;;;17.93;100.00;99296.25;5015807;28;1200;-74
2022/06/11 06:47:13;;;;;;;;;;;;;;;17.88;100.00;99292.06;5033476;28;815;-71
2022/06/11 06:49:40;;;;;;;;;;;;;;;17.95;100.00;99299.34;5015882;28;1165;-70
2022/06/11 06:52:07;;;;;;;;;;;;;;;17.99;100.00;99299.19;5015667;28;1111;-70
2022/06/11 06:54:34;;;;;;;;;;;;;;;18.09;100.00;99289.56;5033234;28;815;-70
2022/06/11 06:57:04;;;;;;;;;;;;;;;18.19;100.00;99296.72;5033201;28;1941;-74
2022/06/11 06:59:32;;;;;;;;;;;;;;;18.38;100.00;99296.69;5033185;28;924;-73
2022/06/11 07:01:59;;;;;;;;;;;;;;;18.51;100.00;99289.66;5015313;28;1192;-73
2022/06/11 07:04:25;;;;;;;;;;;;;;;18.57;100.00;99293.38;5033053;28;830;-74
2022/06/11 07:06:53;;;;;;;;;;;;;;;18.58;100.00;99291.34;5015370;28;1181;-71
2022/06/11 07:09:23;;;;;;;;;;;;;;;18.56;100.00;99300.25;5033298;28;814;-71
2022/06/11 07:11:49;;;;;;;;;;;;;;;18.51;100.00;99303.66;5032833;28;858;-71
2022/06/11 07:14:16;;;;;;;;;;;;;;;18.42;100.00;99305.72;5032699;28;862;-70
2022/06/11 07:16:45;;;;;;;;;;;;;;;18.50;100.00;99306.94;5014966;28;1890;-71
2022/06/11 07:19:17;;;;;;;;;;;;;;;18.60;100.00;99316.09;4998851;28;886;-71
2022/06/11 07:21:45;;;;;;;;;;;;;;;18.69;100.00;99313.25;5032958;28;814;-70
2022/06/11 07:24:16;;;;;;;;;;;;;;;18.89;100.00;99321.19;5014882;28;1050;-70
2022/06/11 07:26:45;;;;;;;;;;;;;;;19.09;100.00;99315.03;5014923;28;1042;-69
2022/06/11 07:29:15;;;;;;;;;;;;;;;19.39;100.00;99321.59;5014411;28;1205;-70
2022/06/11 07:31:44;;;;;;;;;;;;;;;19.67;100.00;99324.22;5032491;28;850;-68
2022/06/11 07:34:12;;;;;;;;;;;;;;;19.94;100.00;99323.31;5032445;28;783;-69
2022/06/11 07:36:39;;;;;;;;;;;;;;;20.09;100.00;99315.69;5032280;28;1910;-68
2022/06/11 07:39:06;;;;;;;;;;;;;;;20.06;100.00;99318.72;5032230;28;839;-69
2022/06/11 07:41:33;;;;;;;;;;;;;;;20.23;100.00;99311.38;5014484;28;1361;-69
2022/06/11 07:43:59;;;;;;;;;;;;;;;20.36;100.00;99316.72;5032056;28;851;-69
2022/06/11 07:46:25;;;;;;;;;;;;;;;20.57;100.00;99312.81;5032185;28;858;-69
2022/06/11 07:48:52;;;;;;;;;;;;;;;20.98;100.00;99315.78;5032194;28;826;-69
2022/06/11 07:51:20;;;;;;;;;;;;;;;21.25;100.00;99313.13;5032445;28;930;-68
2022/06/11 07:53:48;;;;;;;;;;;;;;;21.53;100.00;99307.94;5014316;28;1279;-70
2022/06/11 07:56:16;;;;;;;;;;;;;;;21.96;100.00;99305.44;5014258;28;1943;-69
2022/06/11 07:58:43;;;;;;;;;;;;;;;22.33;98.44;99308.44;5014242;28;1156;-69
2022/06/11 08:01:09;;;;;;;;;;;;;;;22.53;97.97;99304.81;5031985;28;866;-69
2022/06/11 08:03:38;;;;;;;;;;;;;;;22.64;96.77;99309.75;5030654;28;1137;-70
2022/06/11 08:06:06;;;;;;;;;;;;;;;22.89;96.70;99305.34;5031857;28;890;-70
2022/06/11 08:08:34;;;;;;;;;;;;;;;23.22;93.66;99306.94;5014153;28;1116;-74
2022/06/11 08:11:01;;;;;;;;;;;;;;;23.04;92.66;99308.06;5013966;28;1204;-73
2022/06/11 08:13:28;;;;;;;;;;;;;;;22.84;92.15;99300.44;5031561;28;882;-69
2022/06/11 08:15:55;;;;;;;;;;;;;;;22.50;94.20;99305.78;5031209;28;1922;-71
2022/06/11 08:18:23;;;;;;;;;;;;;;;22.36;94.78;99304.63;5031699;28;822;-71
2022/06/11 08:20:51;;;;;;;;;;;;;;;22.42;95.08;99305.47;5031596;28;795;-69
2022/06/11 08:23:19;;;;;;;;;;;;;;;22.54;93.73;99297.13;5013883;28;819;-68
2022/06/11 08:25:46;;;;;;;;;;;;;;;22.10;92.50;99296.13;5014101;28;1156;-70
2022/06/11 08:28:13;;;;;;;;;;;;;;;22.10;94.64;99289.72;5031642;28;783;-70
2022/06/11 08:30:41;;;;;;;;;;;;;;;22.18;93.57;99293.66;5010593;28;1267;-69
2022/06/11 08:33:08;;;;;;;;;;;;;;;22.16;93.48;99285.69;5012085;28;819;-68
2022/06/11 08:35:36;;;;;;;;;;;;;;;22.11;92.19;99289.22;5011961;28;1914;-69
2022/06/11 08:38:03;;;;;;;;;;;;;;;22.30;92.85;99291.78;5012083;28;862;-69
2022/06/11 08:40:38;;;;;;;;;;;;;;;22.63;92.13;99291.31;5012185;28;799;-69
2022/06/11 08:43:04;;;;;;;;;;;;;;;23.01;92.43;99280.91;5011648;28;847;-68
2022/06/11 08:45:36;;;;;;;;;;;;;;;23.27;90.32;99278.00;5011720;28;807;-68
2022/06/11 08:48:10;;;;;;;;;;;;;;;23.39;88.88;99281.66;5026837;28;1188;-69
2022/06/11 08:50:40;;;;;;;;;;;;;;;23.77;88.68;99280.34;5011878;28;988;-68
2022/06/11 08:53:07;;;;;;;;;;;;;;;24.10;84.63;99286.59;5011744;28;794;-70
2022/06/11 08:55:36;;;;;;;;;;;;;;;24.15;84.33;99286.59;5011594;28;1948;-65
2022/06/11 08:58:11;;;;;;;;;;;;;;;24.46;84.94;99284.88;5011612;28;908;-69
2022/06/11 09:00:48;;;;;;;;;;;;;;;25.00;83.54;99281.81;5011580;28;811;-68
2022/06/11 09:03:18;;;;;;;;;;;;;;;25.74;81.47;99278.88;5011839;28;882;-70
2022/06/11 09:06:02;;;;;;;;;;;;;;;26.71;78.49;99279.88;5011542;28;912;-69
2022/06/11 09:08:43;;;;;;;;;;;;;;;27.15;70.38;99286.47;5011758;28;822;-67
2022/06/11 09:11:12;;;;;;;;;;;;;;;27.47;72.75;99278.94;5011419;28;850;-67
2022/06/11 09:13:54;;;;;;;;;;;;;;;27.59;73.25;99285.25;5011429;28;823;-67
2022/06/11 09:16:27;;;;;;;;;;;;;;;27.74;71.31;99284.81;5011424;28;1950;-67
2022/06/11 09:19:12;;;;;;;;;;;;;;;27.33;72.19;99276.50;5011421;28;878;-67
2022/06/11 09:21:39;;;;;;;;;;;;;;;27.18;73.15;99276.88;5011339;28;851;-66
2022/06/11 09:24:15;;;;;;;;;;;;;;;27.26;71.70;99270.13;5011492;28;827;-66
2022/06/11 09:26:46;;;;;;;;;;;;;;;27.34;73.71;99258.19;5011526;28;826;-66
2022/06/11 09:29:22;;;;;;;;;;;;;;;27.43;72.48;99252.16;5016455;28;1357;-65
2022/06/11 09:31:49;;;;;;;;;;;;;;;27.25;71.25;99265.00;5034782;28;842;-64
2022/06/11 09:34:22;;;;;;;;;;;;;;;27.22;71.26;99255.47;5034724;28;839;-64
2022/06/11 09:37:07;;;;;;;;;;;;;;;27.02;70.19;99250.25;5035322;28;1914;-63
2022/06/11 09:39:37;;;;;;;;;;;;;;;26.77;68.93;99252.28;5016821;28;1402;-63
2022/06/11 09:45:13;;;;;;;;;;;;;;;26.11;71.41;99235.97;5034546;28;621;-62
2022/06/11 09:47:52;;;;;;;;;;;;;;;25.66;73.13;99239.00;5035338;28;792;-63
2022/06/11 09:50:35;;;;;;;;;;;;;;;25.54;75.46;99232.66;5034451;28;1110;-63
2022/06/11 09:53:35;;;;;;;;;;;;;;;25.50;76.98;99225.69;5034347;28;803;-63
2022/06/11 09:56:11;;;;;;;;;;;;;;;25.76;77.18;99217.63;4990304;28;1894;-63
2022/06/11 09:58:57;;;;;;;;;;;;;;;25.77;75.74;99219.16;5034272;28;842;-62
2022/06/11 10:29:53;;;;;;;;;;;;;;;26.98;69.18;99201.56;5575120;22;1719;-60
2022/06/11 10:32:26;;;;;;;;;;;;;;;26.70;72.06;99207.50;5033722;28;1043;-61
2022/06/11 10:34:59;;;;;;;;;;;;;;;26.63;68.75;99203.19;5033521;28;937;-62
2022/06/11 10:37:49;;;;;;;;;;;;;;;26.66;69.49;99194.38;5033595;28;1914;-60
2022/06/11 10:40:32;;;;;;;;;;;;;;;26.97;71.01;99197.97;5023302;28;1217;-60
2022/06/11 10:43:03;;;;;;;;;;;;;;;27.09;71.11;99193.69;5033647;28;787;-60
2022/06/11 10:45:31;;;;;;;;;;;;;;;27.17;72.56;99198.78;5034126;28;817;-60
2022/06/11 10:47:59;;;;;;;;;;;;;;;26.93;70.88;99202.38;5033345;28;925;-61
2022/06/11 10:50:43;;;;;;;;;;;;;;;26.20;71.54;99200.91;5033340;28;862;-60
2022/06/11 10:53:17;;;;;;;;;;;;;;;25.52;72.30;99203.31;5033306;28;818;-60
2022/06/11 10:55:44;;;;;;;;;;;;;;;25.09;72.58;99218.59;5033472;28;1972;-59
2022/06/11 10:58:29;;;;;;;;;;;;;;;24.91;75.22;99205.78;5033648;28;830;-59
2022/06/11 11:01:01;;;;;;;;;;;;;;;24.72;77.07;99204.78;5033086;28;823;-59
2022/06/11 11:03:54;;;;;;;;;;;;;;;24.55;78.09;99208.38;5033114;28;830;-59
2022/06/11 11:06:26;;;;;;;;;;;;;;;24.48;80.01;99203.22;5002501;28;1214;-59
2022/06/11 11:08:54;;;;;;;;;;;;;;;24.79;79.27;99198.59;5033185;28;810;-59
2022/06/11 11:11:21;;;;;;;;;;;;;;;24.93;79.07;99200.38;5032972;28;826;-60
2022/06/11 11:13:51;;;;;;;;;;;;;;;24.85;78.17;99190.91;5032816;28;964;-60
2022/06/11 11:16:22;;;;;;;;;;;;;;;24.91;79.47;99190.91;5032738;28;1886;-59
2022/06/11 11:19:00;;;;;;;;;;;;;;;25.03;79.00;99184.69;5032857;28;1271;-59
2022/06/11 11:21:30;;;;;;;;;;;;;;;25.19;78.38;99188.00;5032715;28;973;-59
2022/06/11 11:24:01;;;;;;;;;;;;;;;25.02;79.86;99182.38;5014901;28;1283;-60
2022/06/11 11:26:35;;;;;;;;;;;;;;;24.64;80.80;99185.53;5014900;28;878;-59
2022/06/11 11:29:25;;;;;;;;;;;;;;;24.19;82.26;99179.06;5032625;28;949;-60
2022/06/11 11:31:54;;;;;;;;;;;;;;;23.88;83.75;99186.47;5022177;28;1772;-59
2022/06/11 11:34:28;;;;;;;;;;;;;;;23.79;83.48;99176.22;5032405;28;896;-59
2022/06/11 11:37:18;;;;;;;;;;;;;;;23.82;81.23;99166.72;5032379;28;1913;-60
2022/06/11 11:39:51;;;;;;;;;;;;;;;23.80;79.81;99169.28;5022000;28;1099;-60
2022/06/11 11:42:19;;;;;;;;;;;;;;;23.96;81.18;99164.16;5032520;28;881;-59
2022/06/11 11:44:50;;;;;;;;;;;;;;;24.17;78.78;99168.28;5032181;28;915;-60
2022/06/11 11:47:26;;;;;;;;;;;;;;;24.57;79.57;99163.44;5032128;28;930;-59
2022/06/11 11:50:02;;;;;;;;;;;;;;;25.25;77.64;99164.09;5031800;28;850;-60
2022/06/11 11:55:32;;;;;;;;;;;;;;;25.44;75.76;99157.84;5032107;28;2229;-60
2022/06/11 11:57:59;;;;;;;;;;;;;;;25.44;77.09;99157.84;5014220;28;1299;-60
2022/06/11 12:00:27;;;;;;;;;;;;;;;25.35;76.87;99155.28;5032035;28;858;-60
2022/06/11 12:03:02;;;;;;;;;;;;;;;24.96;76.27;99150.53;5031962;28;838;-60
2022/06/11 12:05:31;;;;;;;;;;;;;;;24.35;75.42;99144.44;5031929;28;830;-61
2022/06/11 12:07:59;;;;;;;;;;;;;;;23.97;74.53;99151.59;5031901;28;857;-61
2022/06/11 12:10:31;;;;;;;;;;;;;;;23.74;76.20;99143.06;5031916;28;823;-60
2022/06/11 12:12:57;;;;;;;;;;;;;;;23.80;78.37;99134.66;5031866;28;818;-60
2022/06/11 12:15:27;;;;;;;;;;;;;;;23.94;78.71;99135.69;5031712;28;894;-60
2022/06/11 12:17:57;;;;;;;;;;;;;;;23.89;78.73;99128.75;5031793;28;898;-60
2022/06/11 12:20:30;;;;;;;;;;;;;;;23.83;79.85;99120.31;5031700;28;800;-60
2022/06/11 12:22:59;;;;;;;;;;;;;;;23.69;82.14;99120.50;5031722;28;869;-60
2022/06/11 12:25:34;;;;;;;;;;;;;;;23.33;82.66;99118.09;5031827;28;865;-59
2022/06/11 12:28:01;;;;;;;;;;;;;;;22.90;84.22;99120.19;5031583;28;923;-60
2022/06/11 12:30:29;;;;;;;;;;;;;;;22.40;85.83;99124.22;5031412;28;1439;-60
2022/06/11 12:32:58;;;;;;;;;;;;;;;21.79;88.76;99125.22;5031711;28;830;-59
2022/06/11 12:35:45;;;;;;;;;;;;;;;21.17;91.90;99133.69;5031653;28;818;-60
2022/06/11 12:38:15;;;;;;;;;;;;;;;20.77;96.05;99126.78;5031649;28;1157;-60
2022/06/11 12:40:50;;;;;;;;;;;;;;;20.60;97.41;99125.78;5031641;28;1109;-60
2022/06/11 12:43:35;;;;;;;;;;;;;;;20.57;99.02;99118.31;5031534;28;802;-60
2022/06/11 12:46:12;;;;;;;;;;;;;;;20.51;100.00;99117.47;5031467;28;853;-61
2022/06/11 12:48:54;;;;;;;;;;;;;;;20.36;100.00;99117.47;5031521;28;901;-60
2022/06/11 12:51:29;;;;;;;;;;;;;;;20.10;100.00;99112.50;5031401;28;877;-60
2022/06/11 12:53:58;;;;;;;;;;;;;;;19.96;100.00;99116.84;5031525;28;901;-60
2022/06/11 12:56:43;;;;;;;;;;;;;;;19.76;100.00;99116.75;5031254;28;1918;-60
2022/06/11 12:59:15;;;;;;;;;;;;;;;19.52;100.00;99105.56;5031204;28;934;-60
2022/06/11 13:01:54;;;;;;;;;;;;;;;19.47;100.00;99103.44;5032850;28;942;-60
2022/06/11 13:04:40;;;;;;;;;;;;;;;19.54;100.00;99100.25;5035285;28;834;-60
2022/06/11 13:07:16;;;;;;;;;;;;;;;19.70;100.00;99102.63;5017428;28;1533;-60
2022/06/11 13:09:51;;;;;;;;;;;;;;;19.81;100.00;99098.47;5035362;28;810;-60
2022/06/11 13:12:23;;;;;;;;;;;;;;;19.59;100.00;99102.41;5035234;28;878;-60
2022/06/11 13:14:58;;;;;;;;;;;;;;;19.28;100.00;99111.22;5035142;28;839;-60
2022/06/11 13:17:35;;;;;;;;;;;;;;;19.11;100.00;99102.47;5017389;28;1894;-60
2022/06/11 13:20:20;;;;;;;;;;;;;;;19.04;100.00;99114.06;5035121;28;917;-60
2022/06/11 13:23:01;;;;;;;;;;;;;;;18.98;100.00;99128.69;5034956;28;904;-60
2022/06/11 13:25:53;;;;;;;;;;;;;;;18.73;100.00;99140.31;5034940;28;826;-60
2022/06/11 13:28:36;;;;;;;;;;;;;;;18.25;100.00;99137.44;5017510;28;928;-59
2022/06/11 13:31:13;;;;;;;;;;;;;;;17.83;100.00;99130.53;5034585;28;1430;-59
2022/06/11 13:33:50;;;;;;;;;;;;;;;17.70;100.00;99136.28;5034797;28;971;-59
2022/06/11 13:36:36;;;;;;;;;;;;;;;17.58;100.00;99136.44;5034745;28;1902;-63
2022/06/11 13:39:06;;;;;;;;;;;;;;;17.64;100.00;99132.56;4994570;28;1116;-63
2022/06/11 13:41:39;;;;;;;;;;;;;;;17.72;100.00;99125.41;5034659;28;826;-63
2022/06/11 13:44:24;;;;;;;;;;;;;;;17.82;100.00;99131.00;5034859;28;831;-63
2022/06/11 13:46:51;;;;;;;;;;;;;;;17.92;100.00;99127.75;5034533;28;842;-62
2022/06/11 13:49:40;;;;;;;;;;;;;;;18.05;100.00;99124.75;5034447;28;823;-62
2022/06/11 13:55:10;;;;;;;;;;;;;;;18.14;100.00;99124.72;4997000;28;1226;-62
2022/06/11 13:55:11;;;;;;;;;;;;;;;18.09;100.00;99122.56;5034137;28;849;-62
2022/06/11 13:57:56;;;;;;;;;;;;;;;17.97;100.00;99120.75;5034282;28;1947;-61
2022/06/11 14:00:30;;;;;;;;;;;;;;;17.99;100.00;99109.06;5034242;28;948;-61
2022/06/11 14:03:15;;;;;;;;;;;;;;;17.97;100.00;99115.16;5034222;28;799;-61
2022/06/11 14:05:45;;;;;;;;;;;;;;;17.92;100.00;99105.38;5034424;28;806;-61
2022/06/11 14:08:14;;;;;;;;;;;;;;;17.87;100.00;99111.59;5034178;28;811;-61
2022/06/11 14:10:43;;;;;;;;;;;;;;;17.89;100.00;99120.28;5034299;28;871;-61
2022/06/11 14:13:10;;;;;;;;;;;;;;;17.86;100.00;99112.84;5033428;28;838;-61
2022/06/11 14:15:38;;;;;;;;;;;;;;;17.79;100.00;99112.34;5034054;28;1979;-61
2022/06/11 14:18:23;;;;;;;;;;;;;;;17.73;100.00;99109.41;5033953;28;869;-61
2022/06/11 14:20:51;;;;;;;;;;;;;;;17.64;100.00;99104.59;5034203;28;854;-61
2022/06/11 14:23:17;;;;;;;;;;;;;;;17.59;100.00;99105.25;5034185;28;853;-60
2022/06/11 14:25:49;;;;;;;;;;;;;;;17.59;100.00;99107.28;5034084;28;790;-60
2022/06/11 14:28:16;;;;;;;;;;;;;;;17.61;100.00;99105.56;5033865;28;919;-61
2022/06/11 14:30:45;;;;;;;;;;;;;;;17.62;100.00;99104.28;5033603;28;1544;-61
2022/06/11 14:33:12;;;;;;;;;;;;;;;17.65;100.00;99100.59;5033720;28;851;-60
2022/06/11 14:36:00;;;;;;;;;;;;;;;17.67;100.00;99103.69;5033579;28;1934;-60